createdAt,value
2023-01-04T00:02:00.650Z,101478.78
2023-01-04T00:04:28.403Z,101483.38
2023-01-04T00:06:57.062Z,101473.50
2023-01-04T00:09:24.855Z,101478.97
2023-01-04T00:11:52.585Z,101467.16
2023-01-04T00:14:21.057Z,101455.41
2023-01-04T00:16:48.955Z,101450.97
2023-01-04T00:19:17.016Z,101446.38
2023-01-04T00:21:46.321Z,101448.41
2023-01-04T00:24:15.547Z,101448.59
2023-01-04T00:26:43.966Z,101439.53
2023-01-04T00:29:11.783Z,101435.78
2023-01-04T00:31:39.601Z,101433.22
2023-01-04T00:34:07.553Z,101437.81
2023-01-04T00:36:35.321Z,101428.94
2023-01-04T00:39:10.288Z,101422.50
2023-01-04T00:44:26.264Z,101402.84
2023-01-04T00:46:54.085Z,101399.28
2023-01-04T00:49:23.085Z,101390.25
2023-01-04T00:51:50.868Z,101385.63
2023-01-04T00:54:18.748Z,101380.38
2023-01-04T00:56:46.597Z,101383.09
2023-01-04T00:59:14.404Z,101375.91
2023-01-04T01:01:42.204Z,101370.63
2023-01-04T01:04:10.148Z,101367.91
2023-01-04T01:06:37.974Z,101375.22
2023-01-04T01:09:05.773Z,101376.25
2023-01-04T01:11:34.298Z,101366.38
2023-01-04T01:14:02.068Z,101368.22
2023-01-04T01:16:53.690Z,101369.25
2023-01-04T01:19:17.482Z,101363.94
2023-01-04T01:21:45.231Z,101369.41
2023-01-04T01:24:12.997Z,101363.09
2023-01-04T01:26:40.743Z,101364.13
2023-01-04T01:29:08.518Z,101355.94
2023-01-04T01:31:36.289Z,101346.03
2023-01-04T01:34:04.151Z,101347.91
2023-01-04T01:36:31.829Z,101340.75
2023-01-04T01:38:59.557Z,101342.66
2023-01-04T01:41:27.374Z,101335.31
2023-01-04T01:43:55.148Z,101335.31
2023-01-04T01:46:22.893Z,101334.47
2023-01-04T01:48:50.673Z,101323.56
2023-01-04T01:51:18.661Z,101312.66
2023-01-04T01:53:46.382Z,101306.50
2023-01-04T01:56:14.107Z,101320.97
2023-01-04T01:58:42.022Z,101310.91
2023-01-04T02:04:28.484Z,101315.69
2023-01-04T02:10:19.584Z,101311.25
2023-01-04T02:13:10.896Z,101304.09
2023-01-04T02:15:52.788Z,101304.09
2023-01-04T02:19:02.525Z,101298.66
2023-01-04T02:26:24.442Z,101293.53
2023-01-04T02:28:35.262Z,101281.75
2023-01-04T02:37:07.232Z,101264.53
2023-01-04T02:39:34.990Z,101266.41
2023-01-04T02:42:02.754Z,101260.81
2023-01-04T02:44:47.988Z,101259.09
2023-01-04T02:47:15.700Z,101248.19
2023-01-04T02:50:05.130Z,101241.03
2023-01-04T02:52:33.320Z,101236.59
2023-01-04T02:55:01.410Z,101238.31
2023-01-04T02:57:29.315Z,101228.41
2023-01-04T02:59:56.983Z,101222.94
2023-01-04T03:02:42.485Z,101220.22
2023-01-04T03:05:28.177Z,101222.94
2023-01-04T03:07:55.913Z,101217.69
2023-01-04T03:10:23.647Z,101214.09
2023-01-04T03:12:50.321Z,101207.63
2023-01-04T03:15:18.141Z,101193.16
2023-01-04T03:17:45.907Z,101193.31
2023-01-04T03:20:13.757Z,101193.31
2023-01-04T03:22:59.130Z,101182.25
2023-01-04T03:25:44.459Z,101177.97
2023-01-04T03:28:29.610Z,101177.97
2023-01-04T03:31:15.008Z,101172.53
2023-01-04T03:34:00.314Z,101176.25
2023-01-04T03:36:28.132Z,101170.78
2023-01-04T03:39:13.372Z,101171.69
2023-01-04T03:41:58.525Z,101161.63
2023-01-04T03:44:43.580Z,101146.44
2023-01-04T03:47:28.703Z,101147.28
2023-01-04T03:49:57.633Z,101143.53
2023-01-04T03:52:26.474Z,101134.50
2023-01-04T03:54:54.207Z,101127.88
2023-01-04T03:57:21.962Z,101128.06
2023-01-04T03:59:49.679Z,101115.28
2023-01-04T04:02:19.472Z,101110.81
2023-01-04T04:05:05.088Z,101091.72
2023-01-04T04:07:50.320Z,101089.00
2023-01-04T04:10:18.284Z,101082.72
2023-01-04T04:12:46.003Z,101079.97
2023-01-04T04:15:13.766Z,101073.53
2023-01-04T04:17:42.286Z,101069.91
2023-01-04T04:20:10.135Z,101078.09
2023-01-04T04:22:38.044Z,101069.25
2023-01-04T04:25:05.899Z,101058.38
2023-01-04T04:27:33.607Z,101061.09
2023-01-04T04:30:02.683Z,101055.78
2023-01-04T04:32:30.397Z,101058.38
2023-01-04T04:34:58.193Z,101056.63
2023-01-04T04:37:27.151Z,101041.31
2023-01-04T04:39:54.881Z,101049.50
2023-01-04T04:42:21.582Z,101040.28
2023-01-04T04:44:49.305Z,101033.13
2023-01-04T04:47:17.069Z,101027.69
2023-01-04T04:49:44.816Z,101027.69
2023-01-04T04:52:12.530Z,101029.38
2023-01-04T04:54:40.303Z,101023.06
2023-01-04T04:57:08.033Z,101024.13
2023-01-04T04:59:37.579Z,101014.91
2023-01-04T05:02:05.392Z,100997.69
2023-01-04T05:04:33.229Z,100993.94
2023-01-04T05:07:00.979Z,100988.69
2023-01-04T05:09:28.701Z,100965.16
2023-01-04T05:12:14.028Z,100978.78
2023-01-04T05:14:41.747Z,100973.16
2023-01-04T05:17:09.504Z,100974.16
2023-01-04T05:19:39.595Z,100960.91
2023-01-04T05:22:07.355Z,100962.94
2023-01-04T05:24:35.074Z,100963.97
2023-01-04T05:27:03.045Z,100959.56
2023-01-04T05:29:48.414Z,100946.78
2023-01-04T05:32:16.276Z,100945.94
2023-01-04T05:34:44.075Z,100938.59
2023-01-04T05:37:11.879Z,100931.44
2023-01-04T05:39:39.656Z,100930.41
2023-01-04T05:42:24.898Z,100931.44
2023-01-04T05:44:52.621Z,100916.09
2023-01-04T05:47:20.403Z,100917.78
2023-01-04T05:49:48.132Z,100913.88
2023-01-04T05:52:15.853Z,100913.03
2023-01-04T05:54:43.594Z,100906.72
2023-01-04T05:57:11.404Z,100915.94
2023-01-04T05:59:41.839Z,100910.50
2023-01-04T06:04:37.894Z,100915.94
2023-01-04T06:07:06.882Z,100917.78
2023-01-04T06:09:34.608Z,100920.34
2023-01-04T06:12:02.331Z,100913.03
2023-01-04T06:14:30.087Z,100912.88
2023-01-04T06:16:57.934Z,100902.97
2023-01-04T06:19:25.731Z,100898.38
2023-01-04T06:21:53.496Z,100891.22
2023-01-04T06:24:21.282Z,100882.88
2023-01-04T06:26:49.092Z,100877.44
2023-01-04T06:29:16.782Z,100879.97
2023-01-04T06:31:44.540Z,100884.75
2023-01-04T06:34:12.247Z,100887.50
2023-01-04T06:36:40.136Z,100871.97
2023-01-04T06:39:07.866Z,100868.41
2023-01-04T06:41:35.744Z,100868.22
2023-01-04T06:44:03.446Z,100854.78
2023-01-04T06:46:31.196Z,100852.22
2023-01-04T06:48:58.952Z,100846.75
2023-01-04T06:51:26.679Z,100835.88
2023-01-04T06:53:54.379Z,100834.81
2023-01-04T06:56:22.090Z,100827.53
2023-01-04T06:58:49.823Z,100825.63
2023-01-04T07:01:17.617Z,100822.72
2023-01-04T07:03:45.406Z,100815.75
2023-01-04T07:06:13.135Z,100803.16
2023-01-04T07:08:40.855Z,100812.38
2023-01-04T07:11:08.571Z,100801.47
2023-01-04T07:13:36.290Z,100803.16
2023-01-04T07:16:04.087Z,100806.03
2023-01-04T07:18:31.902Z,100802.66
2023-01-04T07:20:59.892Z,100800.94
2023-01-04T07:23:27.711Z,100808.28
2023-01-04T07:25:55.481Z,100805.56
2023-01-04T07:28:40.973Z,100794.81
2023-01-04T07:31:08.772Z,100796.72
2023-01-04T07:33:36.575Z,100802.84
2023-01-04T07:36:04.329Z,100800.09
2023-01-04T07:38:33.670Z,100812.22
2023-01-04T07:41:01.825Z,100804.72
2023-01-04T07:43:29.536Z,100803.88
2023-01-04T07:45:57.347Z,100791.25
2023-01-04T07:48:25.089Z,100798.44
2023-01-04T07:50:52.849Z,100790.41
2023-01-04T07:53:20.518Z,100792.28
2023-01-04T07:55:48.272Z,100788.72
2023-01-04T07:58:15.973Z,100784.13
2023-01-04T08:00:43.698Z,100785.81
2023-01-04T08:03:11.435Z,100780.34
2023-01-04T08:05:39.174Z,100773.22
2023-01-04T08:08:06.874Z,100763.16
2023-01-04T08:10:34.656Z,100766.91
2023-01-04T08:13:02.365Z,100760.63
2023-01-04T08:15:30.133Z,100750.38
2023-01-04T08:17:57.910Z,100746.81
2023-01-04T08:20:25.712Z,100741.34
2023-01-04T08:22:53.495Z,100717.66
2023-01-04T08:25:21.349Z,100698.59
2023-01-04T08:27:49.200Z,100695.88
2023-01-04T08:30:17.025Z,100713.06
2023-01-04T08:32:44.725Z,100699.44
2023-01-04T08:35:12.447Z,100699.44
2023-01-04T08:37:40.149Z,100679.50
2023-01-04T08:40:07.873Z,100684.97
2023-01-04T08:42:35.595Z,100693.97
2023-01-04T08:45:05.236Z,100725.84
2023-01-04T08:47:32.978Z,100741.34
2023-01-04T08:50:06.620Z,100736.09
2023-01-04T08:52:37.843Z,100719.75
2023-01-04T08:55:11.828Z,100705.63
2023-01-04T08:57:40.627Z,100718.22
2023-01-04T09:00:08.370Z,100705.63
2023-01-04T09:02:36.421Z,100696.75
2023-01-04T09:05:04.376Z,100708.53
2023-01-04T09:07:32.283Z,100701.38
2023-01-04T09:10:00.707Z,100706.81
2023-01-04T09:12:28.570Z,100691.50
2023-01-04T09:14:56.265Z,100687.75
2023-01-04T09:17:24.442Z,100686.91
2023-01-04T09:19:52.284Z,100691.50
2023-01-04T09:22:20.085Z,100683.34
2023-01-04T09:24:47.823Z,100677.88
2023-01-04T09:27:15.999Z,100672.44
2023-01-04T09:29:43.764Z,100678.72
2023-01-04T09:32:16.475Z,100682.28
2023-01-04T09:34:44.815Z,100674.78
2023-01-04T09:37:12.533Z,100671.22
2023-01-04T09:39:40.260Z,100685.88
2023-01-04T09:42:08.123Z,100667.66
2023-01-04T09:47:23.604Z,100679.56
2023-01-04T09:49:51.300Z,100677.69
2023-01-04T09:52:19.024Z,100682.13
2023-01-04T09:54:46.715Z,100676.47
2023-01-04T09:57:14.391Z,100682.13
2023-01-04T09:59:42.137Z,100673.75
2023-01-04T10:02:10.038Z,100669.50
2023-01-04T10:04:37.949Z,100669.50
2023-01-04T10:07:05.704Z,100663.06
2023-01-04T10:09:33.456Z,100656.56
2023-01-04T10:12:01.157Z,100658.44
2023-01-04T10:14:29.049Z,100651.31
2023-01-04T10:17:14.092Z,100655.03
2023-01-04T10:22:30.079Z,100643.31
2023-01-04T10:24:57.843Z,100641.44
2023-01-04T10:27:25.678Z,100638.69
2023-01-04T10:29:53.394Z,100635.97
2023-01-04T10:32:21.133Z,100624.22
2023-01-04T10:34:48.867Z,100624.22
2023-01-04T10:37:16.653Z,100608.06
2023-01-04T10:39:44.401Z,100605.00
2023-01-04T10:42:12.100Z,100592.56
2023-01-04T10:44:39.958Z,100587.97
2023-01-04T10:47:08.573Z,100585.25
2023-01-04T10:49:36.937Z,100576.41
2023-01-04T10:52:04.661Z,100578.94
2023-01-04T10:54:32.382Z,100573.50
2023-01-04T10:57:05.120Z,100567.19
2023-01-04T10:59:35.154Z,100559.00
2023-01-04T11:02:03.169Z,100555.28
2023-01-04T11:04:31.003Z,100550.84
2023-01-04T11:06:58.747Z,100560.41
2023-01-04T11:09:26.515Z,100551.41
2023-01-04T11:11:54.269Z,100554.25
2023-01-04T11:14:22.094Z,100549.84
2023-01-04T11:16:49.925Z,100537.25
2023-01-04T11:19:17.688Z,100531.78
2023-01-04T11:21:45.451Z,100514.44
2023-01-04T11:27:02.528Z,100494.50
2023-01-04T11:29:30.220Z,100491.59
2023-01-04T11:31:58.027Z,100487.19
2023-01-04T11:34:25.835Z,100482.41
2023-01-04T11:36:54.309Z,100493.31
2023-01-04T11:39:22.064Z,100480.69
2023-01-04T11:41:49.832Z,100468.78
2023-01-04T11:44:17.547Z,100467.09
2023-01-04T11:46:45.265Z,100480.69
2023-01-04T11:49:12.989Z,100467.91
2023-01-04T11:51:41.133Z,100464.34
2023-01-04T11:54:08.888Z,100462.69
2023-01-04T11:56:36.837Z,100449.72
2023-01-04T11:59:04.764Z,100455.19
2023-01-04T12:01:32.541Z,100456.88
2023-01-04T12:04:00.341Z,100456.88
2023-01-04T12:06:28.138Z,100461.50
2023-01-04T12:08:55.917Z,100456.88
2023-01-04T12:11:23.646Z,100455.00
2023-01-04T12:13:51.406Z,100456.50
2023-01-04T12:16:19.201Z,100450.03
2023-01-04T12:18:47.321Z,100456.34
2023-01-04T12:21:15.098Z,100455.28
2023-01-04T12:23:42.903Z,100448.81
2023-01-04T12:26:10.601Z,100460.38
2023-01-04T12:31:31.281Z,100439.25
2023-01-04T12:33:59.079Z,100432.56
2023-01-04T12:36:26.808Z,100429.47
2023-01-04T12:38:54.780Z,100433.25
2023-01-04T12:41:22.595Z,100428.25
2023-01-04T12:43:50.550Z,100434.16
2023-01-04T12:46:32.177Z,100425.25
2023-01-04T12:49:06.231Z,100432.59
2023-01-04T12:51:34.325Z,100428.66
2023-01-04T12:54:02.262Z,100426.94
2023-01-04T12:56:30.063Z,100428.66
2023-01-04T12:59:24.651Z,100410.03
2023-01-04T13:01:45.746Z,100403.75
2023-01-04T13:04:13.667Z,100399.97
2023-01-04T13:06:42.808Z,100389.91
2023-01-04T13:09:10.669Z,100393.13
2023-01-04T13:11:38.513Z,100389.56
2023-01-04T13:14:06.317Z,100377.78
2023-01-04T13:16:34.210Z,100371.50
2023-01-04T13:19:02.068Z,100357.03
2023-01-04T13:21:29.934Z,100358.91
2023-01-04T13:23:57.748Z,100361.81
2023-01-04T13:26:25.492Z,100369.81
2023-01-04T13:28:58.078Z,100343.78
2023-01-04T13:31:26.090Z,100340.56
2023-01-04T13:33:53.877Z,100343.50
2023-01-04T13:36:21.726Z,100344.34
2023-01-04T13:38:49.517Z,100330.72
2023-01-04T13:41:17.359Z,100329.22
2023-01-04T13:43:45.137Z,100323.38
2023-01-04T13:46:13.028Z,100308.25
2023-01-04T13:48:41.304Z,100308.72
2023-01-04T13:51:09.109Z,100302.63
2023-01-04T13:53:37.008Z,100292.56
2023-01-04T13:56:04.901Z,100293.78
2023-01-04T13:58:32.719Z,100296.94
2023-01-04T14:01:00.691Z,100305.13
2023-01-04T14:03:28.598Z,100304.78
2023-01-04T14:06:01.305Z,100313.97
2023-01-04T14:08:30.661Z,100309.75
2023-01-04T14:10:58.884Z,100304.28
2023-01-04T14:13:26.664Z,100300.16
2023-01-04T14:15:54.563Z,100306.47
2023-01-04T14:18:22.367Z,100299.50
2023-01-04T14:20:50.212Z,100295.09
2023-01-04T14:23:21.361Z,100299.50
2023-01-04T14:25:57.131Z,100280.03
2023-01-04T14:28:27.367Z,100292.00
2023-01-04T14:30:55.293Z,100282.97
2023-01-04T14:33:23.998Z,100278.53
2023-01-04T14:35:51.830Z,100270.56
2023-01-04T14:38:19.529Z,100262.56
2023-01-04T14:40:47.377Z,100269.91
2023-01-04T14:43:15.135Z,100271.59
2023-01-04T14:45:42.903Z,100261.72
2023-01-04T14:48:11.299Z,100262.56
2023-01-04T14:50:39.064Z,100259.94
2023-01-04T14:53:06.786Z,100269.50
2023-01-04T14:55:34.467Z,100260.03
2023-01-04T14:58:02.248Z,100252.94
2023-01-04T15:00:30.042Z,100262.72
2023-01-04T15:02:57.889Z,100257.41
2023-01-04T15:05:25.776Z,100250.94
2023-01-04T15:07:53.534Z,100262.97
2023-01-04T15:10:21.312Z,100258.81
2023-01-04T15:12:49.089Z,100253.78
2023-01-04T15:15:16.833Z,100243.50
2023-01-04T15:17:44.581Z,100245.91
2023-01-04T15:20:12.355Z,100222.72
2023-01-04T15:22:40.144Z,100224.78
2023-01-04T15:25:07.871Z,100232.53
2023-01-04T15:27:41.981Z,100245.25
2023-01-04T15:30:10.430Z,100252.41
2023-01-04T15:32:38.172Z,100240.97
2023-01-04T15:35:05.933Z,100236.69
2023-01-04T15:37:33.704Z,100247.13
2023-01-04T15:40:03.129Z,100239.16
2023-01-04T15:42:49.031Z,100228.09
2023-01-04T15:45:16.860Z,100225.72
2023-01-04T15:47:44.604Z,100230.94
2023-01-04T15:50:12.380Z,100205.91
2023-01-04T15:52:40.138Z,100200.31
2023-01-04T15:55:07.890Z,100199.72
2023-01-04T15:57:41.652Z,100203.06
2023-01-04T16:00:11.628Z,100185.72
2023-01-04T16:02:39.532Z,100173.47
2023-01-04T16:05:07.534Z,100172.44
2023-01-04T16:07:36.710Z,100154.78
2023-01-04T16:10:04.611Z,100156.06
2023-01-04T16:12:45.998Z,100168.53
2023-01-04T16:15:15.410Z,100158.44
2023-01-04T16:17:43.156Z,100169.69
2023-01-04T16:20:10.888Z,100163.09
2023-01-04T16:22:38.622Z,100160.03
2023-01-04T16:25:11.285Z,100159.63
2023-01-04T16:27:39.865Z,100160.31
2023-01-04T16:30:07.658Z,100170.44
2023-01-04T16:32:35.393Z,100169.31
2023-01-04T16:35:03.079Z,100150.31
2023-01-04T16:37:30.874Z,100143.25
2023-01-04T16:40:07.162Z,100139.09
2023-01-04T16:42:35.756Z,100125.13
2023-01-04T16:45:03.554Z,100133.88
2023-01-04T16:47:31.371Z,100129.91
2023-01-04T16:49:59.134Z,100123.38
2023-01-04T16:52:27.568Z,100126.91
2023-01-04T16:54:55.259Z,100115.66
2023-01-04T16:57:23.994Z,100117.44
2023-01-04T16:59:51.981Z,100107.59
2023-01-04T17:02:20.195Z,100110.84
2023-01-04T17:04:52.852Z,100105.84
2023-01-04T17:07:20.558Z,100103.81
2023-01-04T17:09:48.315Z,100099.59
2023-01-04T17:17:51.685Z,100115.22
2023-01-04T17:20:19.547Z,100106.78
2023-01-04T17:22:47.408Z,100097.94
2023-01-04T17:25:15.187Z,100117.91
2023-01-04T17:27:42.970Z,100115.16
2023-01-04T17:30:10.995Z,100115.97
2023-01-04T17:32:38.804Z,100104.28
2023-01-04T17:35:06.631Z,100082.78
2023-01-04T17:37:34.385Z,100079.66
2023-01-04T17:40:02.098Z,100088.03
2023-01-04T17:42:29.865Z,100094.41
2023-01-04T17:44:57.692Z,100086.09
2023-01-04T17:47:29.008Z,100090.06
2023-01-04T17:49:56.751Z,100079.47
2023-01-04T17:52:31.287Z,100084.00
2023-01-04T17:54:59.451Z,100083.19
2023-01-04T17:57:27.310Z,100073.28
2023-01-04T17:59:55.070Z,100062.38
2023-01-04T18:02:23.033Z,100062.63
2023-01-04T18:04:50.806Z,100052.19
2023-01-04T18:07:19.990Z,100052.69
2023-01-04T18:09:47.725Z,100052.78
2023-01-04T18:12:16.894Z,100047.28
2023-01-04T18:14:44.634Z,100041.47
2023-01-04T18:17:12.393Z,100038.66
2023-01-04T18:19:41.668Z,100025.47
2023-01-04T18:22:12.422Z,100022.91
2023-01-04T18:24:40.225Z,100020.69
2023-01-04T18:27:25.685Z,100013.53
2023-01-04T18:29:54.131Z,100011.34
2023-01-04T18:32:21.946Z,100012.28
2023-01-04T18:34:49.685Z,100001.03
2023-01-04T18:37:18.806Z,100004.66
2023-01-04T18:39:46.978Z,99996.03
2023-01-04T18:42:15.389Z,99992.66
2023-01-04T18:44:48.432Z,99981.75
2023-01-04T18:47:17.371Z,99990.91
2023-01-04T18:49:45.177Z,99990.66
2023-01-04T18:52:12.971Z,99998.69
2023-01-04T18:54:40.924Z,99982.41
2023-01-04T18:57:08.751Z,99985.91
2023-01-04T18:59:36.667Z,99985.19
2023-01-04T19:02:04.638Z,99973.91
2023-01-04T19:04:32.828Z,99964.31
2023-01-04T19:07:00.827Z,99950.25
2023-01-04T19:09:28.757Z,99975.13
2023-01-04T19:11:56.653Z,99980.66
2023-01-04T19:14:24.463Z,99994.38
2023-01-04T19:16:53.176Z,99995.25
2023-01-04T19:19:21.334Z,99996.75
2023-01-04T19:21:49.361Z,99994.44
2023-01-04T19:24:17.288Z,99998.63
2023-01-04T19:26:45.095Z,99998.84
2023-01-04T19:29:12.833Z,99994.44
2023-01-04T19:31:40.683Z,99998.22
2023-01-04T19:34:08.704Z,99990.84
2023-01-04T19:36:36.522Z,99995.47
2023-01-04T19:39:07.818Z,99996.72
2023-01-04T19:41:36.674Z,99992.91
2023-01-04T19:44:04.492Z,99988.09
2023-01-04T19:46:32.852Z,99985.56
2023-01-04T19:49:00.978Z,99979.06
2023-01-04T19:51:28.942Z,99976.75
2023-01-04T19:53:56.940Z,99978.22
2023-01-04T19:56:24.742Z,99988.53
2023-01-04T19:58:52.551Z,99990.22
2023-01-04T20:01:20.586Z,99991.06
2023-01-04T20:03:48.515Z,99986.41
2023-01-04T20:06:16.398Z,99983.28
2023-01-04T20:08:44.443Z,99987.91
2023-01-04T20:11:12.337Z,99983.25
2023-01-04T20:13:40.243Z,99991.44
2023-01-04T20:16:08.278Z,99989.34
2023-01-04T20:18:36.134Z,99987.22
2023-01-04T20:21:03.957Z,99988.84
2023-01-04T20:23:31.752Z,99976.94
2023-01-04T20:25:59.525Z,99966.25
2023-01-04T20:28:27.442Z,99964.34
2023-01-04T20:30:55.262Z,99956.56
2023-01-04T20:33:23.131Z,99937.88
2023-01-04T20:35:52.410Z,99944.38
2023-01-04T20:38:20.279Z,99955.72
2023-01-04T20:40:48.100Z,99942.69
2023-01-04T20:43:33.162Z,99947.50
2023-01-04T20:46:00.997Z,99945.38
2023-01-04T20:48:28.854Z,99941.56
2023-01-04T20:50:56.679Z,99940.09
2023-01-04T20:53:24.386Z,99933.34
2023-01-04T20:55:52.288Z,99938.63
2023-01-04T20:58:20.068Z,99928.75
2023-01-04T21:00:47.908Z,99926.22
2023-01-04T21:03:16.045Z,99928.31
2023-01-04T21:05:44.052Z,99906.88
2023-01-04T21:08:11.969Z,99908.97
2023-01-04T21:10:39.790Z,99900.38
2023-01-04T21:13:07.659Z,99897.81
2023-01-04T21:15:35.615Z,99903.06
2023-01-04T21:18:03.492Z,99910.41
2023-01-04T21:20:31.350Z,99914.41
2023-01-04T21:22:59.163Z,99917.34
2023-01-04T21:25:27.091Z,99905.78
2023-01-04T21:27:54.823Z,99904.97
2023-01-04T21:30:22.596Z,99915.22
2023-01-04T21:32:50.381Z,99893.81
2023-01-04T21:35:18.221Z,99898.63
2023-01-04T21:37:46.208Z,99883.28
2023-01-04T21:40:14.025Z,99894.41
2023-01-04T21:42:41.862Z,99898.19
2023-01-04T21:45:09.663Z,99892.94
2023-01-04T21:47:37.864Z,99879.72
2023-01-04T21:50:05.689Z,99880.75
2023-01-04T21:52:33.534Z,99879.91
2023-01-04T21:55:01.322Z,99888.28
2023-01-04T21:57:29.156Z,99904.03
2023-01-04T21:59:56.981Z,99895.03
2023-01-04T22:02:24.999Z,99909.91
2023-01-04T22:04:52.835Z,99924.38
2023-01-04T22:07:20.661Z,99934.00
2023-01-04T22:09:51.138Z,99910.69
2023-01-04T22:12:23.339Z,99909.03
2023-01-04T22:14:51.172Z,99902.94
2023-01-04T22:17:19.064Z,99896.66
2023-01-04T22:19:46.973Z,99895.13
2023-01-04T22:22:14.807Z,99888.84
2023-01-04T22:24:42.614Z,99904.16
2023-01-04T22:27:10.412Z,99891.56
2023-01-04T22:29:38.796Z,99901.63
2023-01-04T22:32:07.523Z,99912.53
2023-01-04T22:34:35.419Z,99899.94
2023-01-04T22:37:03.344Z,99909.78
2023-01-04T22:39:31.150Z,99921.75
2023-01-04T22:41:59.068Z,99914.63
2023-01-04T22:44:29.642Z,99920.09
2023-01-04T22:46:57.442Z,99909.38
2023-01-04T22:49:25.468Z,99919.44
2023-01-04T22:51:55.865Z,99919.44
2023-01-04T22:54:23.659Z,99931.38
2023-01-04T22:56:51.406Z,99915.25
2023-01-04T22:59:19.194Z,99915.44
2023-01-04T23:01:47.131Z,99912.06
2023-01-04T23:04:18.141Z,99904.94
2023-01-04T23:06:45.941Z,99911.63
2023-01-04T23:09:13.767Z,99908.91
2023-01-04T23:11:42.195Z,99910.78
2023-01-04T23:14:09.991Z,99896.50
2023-01-04T23:16:37.859Z,99904.91
2023-01-04T23:19:05.687Z,99900.28
2023-01-04T23:21:33.520Z,99901.53
2023-01-04T23:24:01.443Z,99897.31
2023-01-04T23:26:31.671Z,99894.59
2023-01-04T23:28:59.697Z,99892.91
2023-01-04T23:31:27.479Z,99901.94
2023-01-04T23:33:55.245Z,99893.75
2023-01-04T23:36:23.046Z,99893.94
2023-01-04T23:38:50.939Z,99897.72
2023-01-04T23:41:18.686Z,99878.66
2023-01-04T23:43:46.477Z,99885.97
2023-01-04T23:46:14.306Z,99888.91
2023-01-04T23:48:42.338Z,99888.91
2023-01-04T23:51:10.247Z,99892.66
2023-01-04T23:53:38.046Z,99895.19
2023-01-04T23:56:05.917Z,99879.91
2023-01-04T23:58:33.704Z,99887.22
